Main page
METAR-TAF:

METAR-TAF

Airports :

Cerklje ob Krki, Slovenia

Cerklje ob Krki Airport

latitude: 45-53-59N, longitude: 15-30-55E, elevation: 157 m

Current weather observation

The report was made 36 minutes ago, at 22:00 UTC
Wind 3 kt from variable directions
Temperature 15°C
Humidity 88%
Pressure 1018 hPa
Visibility 10 km or more

METAR: LJCE 232200Z AUTO VRB03KT 9999 NCD 15/13 Q1018

Time: 00:36 (22:36 UTC)

Forecast

The report was made 2 hours and 36 minutes ago, at 20:00 UTC
Forecast valid from 23 at 21 UTC to 24 at 06 UTC
Wind 3 kt from the West
Visibility 10 km or more
no clouds below 1500 m and no cumulonimbus
Probability 30% :
Temporary
from 24 at 01 UTC to 24 at 06 UTC
Visibility: 3500 m
Scattered clouds at a height of 300 ft
mist

TAF: LJCE 232000Z 2321/2406 26003KT CAVOK PROB30 TEMPO 2401/2406 3500 BR SCT003

Weather observations and forecasts of more than 4000 airports (METAR and TAF reports).

The available stations are represented by yellow and red dots on the map.

Hover mouse over dot to see the name of the station.

Then click to see weather observations and forecasts.

To change the map : click on the green buttons with a black cross to zoom in, on the green button with a dash to zoom out, or on the green arrows for adjacent maps.


METAR-TAF: